sensor_id;sensor_type;location;lat;lon;timestamp;P1;durP1;ratioP1;P2;durP2;ratioP2
33696;SDS011;20031;43.416;23.232;2022-07-25T00:01:29;8.15;;;3.25;;
33696;SDS011;20031;43.416;23.232;2022-07-25T00:03:55;5.10;;;3.30;;
33696;SDS011;20031;43.416;23.232;2022-07-25T00:06:20;7.55;;;3.50;;
33696;SDS011;20031;43.416;23.232;2022-07-25T00:08:46;4.68;;;3.17;;
33696;SDS011;20031;43.416;23.232;2022-07-25T00:11:11;5.68;;;3.30;;
33696;SDS011;20031;43.416;23.232;2022-07-25T00:13:37;5.70;;;3.70;;
33696;SDS011;20031;43.416;23.232;2022-07-25T00:16:02;8.45;;;4.25;;
33696;SDS011;20031;43.416;23.232;2022-07-25T00:18:28;15.43;;;4.13;;
33696;SDS011;20031;43.416;23.232;2022-07-25T00:20:53;8.50;;;4.15;;
33696;SDS011;20031;43.416;23.232;2022-07-25T00:23:19;12.23;;;4.03;;
33696;SDS011;20031;43.416;23.232;2022-07-25T00:25:44;7.60;;;4.60;;
33696;SDS011;20031;43.416;23.232;2022-07-25T00:28:10;7.75;;;4.43;;
33696;SDS011;20031;43.416;23.232;2022-07-25T00:30:35;8.80;;;4.32;;
33696;SDS011;20031;43.416;23.232;2022-07-25T00:33:01;6.95;;;4.22;;
33696;SDS011;20031;43.416;23.232;2022-07-25T00:35:26;9.32;;;4.15;;
33696;SDS011;20031;43.416;23.232;2022-07-25T00:37:52;5.85;;;4.20;;
33696;SDS011;20031;43.416;23.232;2022-07-25T00:40:17;7.28;;;4.55;;
33696;SDS011;20031;43.416;23.232;2022-07-25T00:42:42;9.45;;;4.53;;
33696;SDS011;20031;43.416;23.232;2022-07-25T00:45:08;9.00;;;4.70;;
33696;SDS011;20031;43.416;23.232;2022-07-25T00:47:34;7.57;;;4.38;;
33696;SDS011;20031;43.416;23.232;2022-07-25T00:50:00;8.32;;;4.38;;
33696;SDS011;20031;43.416;23.232;2022-07-25T00:52:25;7.60;;;4.40;;
33696;SDS011;20031;43.416;23.232;2022-07-25T00:54:51;7.38;;;4.30;;
33696;SDS011;20031;43.416;23.232;2022-07-25T00:57:17;6.53;;;4.00;;
33696;SDS011;20031;43.416;23.232;2022-07-25T00:59:42;7.80;;;4.32;;
33696;SDS011;20031;43.416;23.232;2022-07-25T01:02:07;9.20;;;4.57;;
33696;SDS011;20031;43.416;23.232;2022-07-25T01:04:33;8.27;;;4.43;;
33696;SDS011;20031;43.416;23.232;2022-07-25T01:06:59;9.75;;;4.65;;
33696;SDS011;20031;43.416;23.232;2022-07-25T01:09:24;6.80;;;4.22;;
33696;SDS011;20031;43.416;23.232;2022-07-25T01:11:50;6.70;;;4.20;;
33696;SDS011;20031;43.416;23.232;2022-07-25T01:14:16;10.77;;;4.47;;
33696;SDS011;20031;43.416;23.232;2022-07-25T01:16:41;9.52;;;4.60;;
33696;SDS011;20031;43.416;23.232;2022-07-25T01:19:07;8.30;;;4.50;;
33696;SDS011;20031;43.416;23.232;2022-07-25T01:21:35;10.30;;;4.68;;
33696;SDS011;20031;43.416;23.232;2022-07-25T01:24:02;8.15;;;4.45;;
33696;SDS011;20031;43.416;23.232;2022-07-25T01:26:28;12.70;;;4.35;;
33696;SDS011;20031;43.416;23.232;2022-07-25T01:28:54;8.88;;;4.18;;
33696;SDS011;20031;43.416;23.232;2022-07-25T01:31:21;11.13;;;4.60;;
33696;SDS011;20031;43.416;23.232;2022-07-25T01:33:46;8.90;;;4.57;;
33696;SDS011;20031;43.416;23.232;2022-07-25T01:36:12;5.30;;;4.15;;
33696;SDS011;20031;43.416;23.232;2022-07-25T01:38:37;10.40;;;4.90;;
33696;SDS011;20031;43.416;23.232;2022-07-25T01:41:03;8.15;;;4.60;;
33696;SDS011;20031;43.416;23.232;2022-07-25T01:43:28;9.98;;;4.57;;
33696;SDS011;20031;43.416;23.232;2022-07-25T01:45:54;6.25;;;4.40;;
33696;SDS011;20031;43.416;23.232;2022-07-25T01:48:19;9.73;;;4.47;;
33696;SDS011;20031;43.416;23.232;2022-07-25T01:50:45;10.35;;;4.35;;
33696;SDS011;20031;43.416;23.232;2022-07-25T01:53:10;7.57;;;4.35;;
33696;SDS011;20031;43.416;23.232;2022-07-25T01:55:36;9.05;;;4.70;;
33696;SDS011;20031;43.416;23.232;2022-07-25T01:58:01;7.90;;;4.47;;
33696;SDS011;20031;43.416;23.232;2022-07-25T02:00:27;10.23;;;4.40;;
33696;SDS011;20031;43.416;23.232;2022-07-25T02:02:53;9.40;;;4.75;;
33696;SDS011;20031;43.416;23.232;2022-07-25T02:05:39;8.68;;;4.82;;
33696;SDS011;20031;43.416;23.232;2022-07-25T02:08:04;5.15;;;4.40;;
33696;SDS011;20031;43.416;23.232;2022-07-25T02:10:30;8.32;;;4.70;;
33696;SDS011;20031;43.416;23.232;2022-07-25T02:12:56;9.55;;;4.47;;
33696;SDS011;20031;43.416;23.232;2022-07-25T02:15:21;10.30;;;4.53;;
33696;SDS011;20031;43.416;23.232;2022-07-25T02:17:47;7.50;;;4.60;;
33696;SDS011;20031;43.416;23.232;2022-07-25T02:20:12;6.20;;;4.50;;
33696;SDS011;20031;43.416;23.232;2022-07-25T02:22:38;5.78;;;4.55;;
33696;SDS011;20031;43.416;23.232;2022-07-25T02:25:03;9.55;;;4.60;;
33696;SDS011;20031;43.416;23.232;2022-07-25T02:27:29;6.20;;;3.95;;
33696;SDS011;20031;43.416;23.232;2022-07-25T02:29:54;9.05;;;4.25;;
33696;SDS011;20031;43.416;23.232;2022-07-25T02:32:20;7.07;;;4.22;;
33696;SDS011;20031;43.416;23.232;2022-07-25T02:34:45;8.57;;;4.50;;
33696;SDS011;20031;43.416;23.232;2022-07-25T02:37:11;8.82;;;4.38;;
33696;SDS011;20031;43.416;23.232;2022-07-25T02:39:37;8.52;;;5.05;;
33696;SDS011;20031;43.416;23.232;2022-07-25T02:42:03;7.85;;;4.35;;
33696;SDS011;20031;43.416;23.232;2022-07-25T02:44:28;8.63;;;4.35;;
33696;SDS011;20031;43.416;23.232;2022-07-25T02:46:54;9.32;;;4.32;;
33696;SDS011;20031;43.416;23.232;2022-07-25T02:49:19;11.32;;;4.95;;
33696;SDS011;20031;43.416;23.232;2022-07-25T02:51:45;9.63;;;4.78;;
33696;SDS011;20031;43.416;23.232;2022-07-25T02:54:10;8.68;;;4.78;;
33696;SDS011;20031;43.416;23.232;2022-07-25T02:56:36;11.70;;;4.25;;
33696;SDS011;20031;43.416;23.232;2022-07-25T02:59:02;8.57;;;4.43;;
33696;SDS011;20031;43.416;23.232;2022-07-25T03:01:27;11.70;;;4.95;;
33696;SDS011;20031;43.416;23.232;2022-07-25T03:03:53;10.38;;;5.03;;
33696;SDS011;20031;43.416;23.232;2022-07-25T03:06:19;11.60;;;4.80;;
33696;SDS011;20031;43.416;23.232;2022-07-25T03:08:45;9.18;;;4.72;;
33696;SDS011;20031;43.416;23.232;2022-07-25T03:11:11;13.13;;;4.85;;
33696;SDS011;20031;43.416;23.232;2022-07-25T03:13:37;8.70;;;4.85;;
33696;SDS011;20031;43.416;23.232;2022-07-25T03:16:02;8.18;;;4.78;;
33696;SDS011;20031;43.416;23.232;2022-07-25T03:18:28;7.90;;;4.43;;
33696;SDS011;20031;43.416;23.232;2022-07-25T03:20:53;8.93;;;4.60;;
33696;SDS011;20031;43.416;23.232;2022-07-25T03:23:19;8.02;;;4.60;;
33696;SDS011;20031;43.416;23.232;2022-07-25T03:25:44;7.40;;;4.80;;
33696;SDS011;20031;43.416;23.232;2022-07-25T03:28:10;10.05;;;4.68;;
33696;SDS011;20031;43.416;23.232;2022-07-25T03:30:35;7.80;;;4.57;;
33696;SDS011;20031;43.416;23.232;2022-07-25T03:33:01;11.75;;;4.63;;
33696;SDS011;20031;43.416;23.232;2022-07-25T03:35:26;9.18;;;4.30;;
33696;SDS011;20031;43.416;23.232;2022-07-25T03:37:52;9.80;;;4.65;;
33696;SDS011;20031;43.416;23.232;2022-07-25T03:40:17;12.13;;;4.80;;
33696;SDS011;20031;43.416;23.232;2022-07-25T03:42:43;10.80;;;4.93;;
33696;SDS011;20031;43.416;23.232;2022-07-25T03:45:08;11.57;;;4.95;;
33696;SDS011;20031;43.416;23.232;2022-07-25T03:47:34;10.95;;;4.95;;
33696;SDS011;20031;43.416;23.232;2022-07-25T03:49:59;9.32;;;4.60;;
33696;SDS011;20031;43.416;23.232;2022-07-25T03:52:25;8.77;;;4.65;;
33696;SDS011;20031;43.416;23.232;2022-07-25T03:54:50;6.55;;;4.45;;
33696;SDS011;20031;43.416;23.232;2022-07-25T03:57:16;8.68;;;4.80;;
33696;SDS011;20031;43.416;23.232;2022-07-25T03:59:41;8.13;;;4.78;;
33696;SDS011;20031;43.416;23.232;2022-07-25T04:02:06;8.38;;;4.90;;
33696;SDS011;20031;43.416;23.232;2022-07-25T04:04:32;11.32;;;5.20;;
33696;SDS011;20031;43.416;23.232;2022-07-25T04:06:57;8.02;;;4.75;;
33696;SDS011;20031;43.416;23.232;2022-07-25T04:09:23;9.90;;;4.95;;
33696;SDS011;20031;43.416;23.232;2022-07-25T04:11:48;8.80;;;4.93;;
33696;SDS011;20031;43.416;23.232;2022-07-25T04:14:14;16.30;;;5.28;;
33696;SDS011;20031;43.416;23.232;2022-07-25T04:16:40;9.98;;;5.03;;
33696;SDS011;20031;43.416;23.232;2022-07-25T04:19:05;9.63;;;5.20;;
33696;SDS011;20031;43.416;23.232;2022-07-25T04:21:31;13.43;;;4.95;;
33696;SDS011;20031;43.416;23.232;2022-07-25T04:23:57;8.57;;;5.10;;
33696;SDS011;20031;43.416;23.232;2022-07-25T04:26:23;10.85;;;5.57;;
33696;SDS011;20031;43.416;23.232;2022-07-25T04:28:48;8.90;;;5.10;;
33696;SDS011;20031;43.416;23.232;2022-07-25T04:31:14;16.27;;;5.70;;
33696;SDS011;20031;43.416;23.232;2022-07-25T04:33:39;13.98;;;5.60;;
33696;SDS011;20031;43.416;23.232;2022-07-25T04:36:05;16.40;;;5.85;;
33696;SDS011;20031;43.416;23.232;2022-07-25T04:38:31;14.73;;;5.63;;
33696;SDS011;20031;43.416;23.232;2022-07-25T04:40:57;10.45;;;5.50;;
33696;SDS011;20031;43.416;23.232;2022-07-25T04:43:23;15.50;;;5.45;;
33696;SDS011;20031;43.416;23.232;2022-07-25T04:45:49;10.23;;;5.38;;
33696;SDS011;20031;43.416;23.232;2022-07-25T04:48:14;13.70;;;5.40;;
33696;SDS011;20031;43.416;23.232;2022-07-25T04:50:40;12.15;;;5.30;;
33696;SDS011;20031;43.416;23.232;2022-07-25T04:53:05;15.02;;;5.30;;
33696;SDS011;20031;43.416;23.232;2022-07-25T04:55:31;14.07;;;5.28;;
33696;SDS011;20031;43.416;23.232;2022-07-25T04:57:57;19.95;;;5.90;;
33696;SDS011;20031;43.416;23.232;2022-07-25T05:00:23;10.88;;;5.75;;
33696;SDS011;20031;43.416;23.232;2022-07-25T05:02:48;12.80;;;5.65;;
33696;SDS011;20031;43.416;23.232;2022-07-25T05:05:15;19.23;;;5.53;;
33696;SDS011;20031;43.416;23.232;2022-07-25T05:07:41;43.22;;;6.50;;
33696;SDS011;20031;43.416;23.232;2022-07-25T05:10:06;13.60;;;5.45;;
33696;SDS011;20031;43.416;23.232;2022-07-25T05:12:32;20.38;;;5.63;;
33696;SDS011;20031;43.416;23.232;2022-07-25T05:14:58;18.92;;;5.53;;
33696;SDS011;20031;43.416;23.232;2022-07-25T05:17:23;16.70;;;6.22;;
33696;SDS011;20031;43.416;23.232;2022-07-25T05:19:49;17.05;;;6.18;;
33696;SDS011;20031;43.416;23.232;2022-07-25T05:22:14;40.33;;;8.52;;
33696;SDS011;20031;43.416;23.232;2022-07-25T05:24:40;43.78;;;9.38;;
33696;SDS011;20031;43.416;23.232;2022-07-25T05:27:05;86.82;;;12.45;;
33696;SDS011;20031;43.416;23.232;2022-07-25T05:29:31;23.05;;;7.18;;
33696;SDS011;20031;43.416;23.232;2022-07-25T05:31:57;28.95;;;6.22;;
33696;SDS011;20031;43.416;23.232;2022-07-25T05:34:23;27.27;;;7.00;;
33696;SDS011;20031;43.416;23.232;2022-07-25T05:36:48;68.90;;;10.05;;
33696;SDS011;20031;43.416;23.232;2022-07-25T05:39:14;84.47;;;11.18;;
33696;SDS011;20031;43.416;23.232;2022-07-25T05:41:39;83.18;;;10.90;;
33696;SDS011;20031;43.416;23.232;2022-07-25T05:44:05;56.63;;;10.15;;
33696;SDS011;20031;43.416;23.232;2022-07-25T05:46:31;21.92;;;7.03;;
33696;SDS011;20031;43.416;23.232;2022-07-25T05:48:59;12.35;;;5.43;;
33696;SDS011;20031;43.416;23.232;2022-07-25T05:51:24;10.23;;;6.05;;
33696;SDS011;20031;43.416;23.232;2022-07-25T05:53:50;19.35;;;6.25;;
33696;SDS011;20031;43.416;23.232;2022-07-25T05:56:15;10.43;;;5.28;;
33696;SDS011;20031;43.416;23.232;2022-07-25T05:58:41;9.07;;;5.10;;
33696;SDS011;20031;43.416;23.232;2022-07-25T06:01:07;14.93;;;6.68;;
33696;SDS011;20031;43.416;23.232;2022-07-25T06:03:35;15.50;;;6.50;;
33696;SDS011;20031;43.416;23.232;2022-07-25T06:06:01;15.25;;;6.20;;
33696;SDS011;20031;43.416;23.232;2022-07-25T07:01:39;11.10;;;4.97;;
33696;SDS011;20031;43.416;23.232;2022-07-25T07:04:04;11.70;;;5.15;;
33696;SDS011;20031;43.416;23.232;2022-07-25T07:06:30;9.90;;;4.95;;
33696;SDS011;20031;43.416;23.232;2022-07-25T07:08:56;12.52;;;5.80;;
33696;SDS011;20031;43.416;23.232;2022-07-25T07:11:22;12.07;;;5.57;;
33696;SDS011;20031;43.416;23.232;2022-07-25T07:13:47;14.38;;;5.30;;
33696;SDS011;20031;43.416;23.232;2022-07-25T07:16:13;8.52;;;5.32;;
33696;SDS011;20031;43.416;23.232;2022-07-25T07:18:38;26.00;;;5.57;;
33696;SDS011;20031;43.416;23.232;2022-07-25T07:21:04;10.70;;;4.95;;
33696;SDS011;20031;43.416;23.232;2022-07-25T07:23:30;8.00;;;4.85;;
33696;SDS011;20031;43.416;23.232;2022-07-25T07:25:56;10.70;;;5.25;;
33696;SDS011;20031;43.416;23.232;2022-07-25T07:28:22;13.32;;;5.55;;
33696;SDS011;20031;43.416;23.232;2022-07-25T07:30:48;12.30;;;5.32;;
33696;SDS011;20031;43.416;23.232;2022-07-25T07:33:13;13.60;;;5.35;;
33696;SDS011;20031;43.416;23.232;2022-07-25T07:35:39;9.43;;;5.10;;
33696;SDS011;20031;43.416;23.232;2022-07-25T07:38:07;8.50;;;5.32;;
33696;SDS011;20031;43.416;23.232;2022-07-25T07:40:33;21.50;;;6.10;;
33696;SDS011;20031;43.416;23.232;2022-07-25T07:42:58;16.58;;;6.00;;
33696;SDS011;20031;43.416;23.232;2022-07-25T07:45:27;12.10;;;5.70;;
33696;SDS011;20031;43.416;23.232;2022-07-25T07:47:52;11.57;;;5.40;;
33696;SDS011;20031;43.416;23.232;2022-07-25T07:50:25;13.52;;;5.20;;
33696;SDS011;20031;43.416;23.232;2022-07-25T07:52:52;11.20;;;5.75;;
33696;SDS011;20031;43.416;23.232;2022-07-25T07:55:19;18.35;;;5.70;;
33696;SDS011;20031;43.416;23.232;2022-07-25T07:58:03;14.00;;;5.40;;
33696;SDS011;20031;43.416;23.232;2022-07-25T08:00:29;8.75;;;5.72;;
33696;SDS011;20031;43.416;23.232;2022-07-25T08:02:59;12.32;;;5.93;;
33696;SDS011;20031;43.416;23.232;2022-07-25T08:05:32;12.52;;;5.80;;
33696;SDS011;20031;43.416;23.232;2022-07-25T08:08:00;10.90;;;5.32;;
33696;SDS011;20031;43.416;23.232;2022-07-25T08:10:27;12.48;;;5.85;;
33696;SDS011;20031;43.416;23.232;2022-07-25T08:12:54;7.32;;;5.30;;
33696;SDS011;20031;43.416;23.232;2022-07-25T08:15:21;12.70;;;5.57;;
33696;SDS011;20031;43.416;23.232;2022-07-25T08:17:47;10.10;;;5.90;;
33696;SDS011;20031;43.416;23.232;2022-07-25T08:20:14;13.75;;;5.60;;
33696;SDS011;20031;43.416;23.232;2022-07-25T08:22:44;13.57;;;6.05;;
33696;SDS011;20031;43.416;23.232;2022-07-25T08:25:15;14.90;;;6.50;;
33696;SDS011;20031;43.416;23.232;2022-07-25T08:27:44;11.52;;;6.15;;
33696;SDS011;20031;43.416;23.232;2022-07-25T08:30:10;13.35;;;6.75;;
33696;SDS011;20031;43.416;23.232;2022-07-25T08:32:54;14.15;;;6.97;;
33696;SDS011;20031;43.416;23.232;2022-07-25T08:35:22;12.57;;;6.50;;
33696;SDS011;20031;43.416;23.232;2022-07-25T08:37:49;10.07;;;6.65;;
33696;SDS011;20031;43.416;23.232;2022-07-25T08:40:16;15.38;;;7.00;;
33696;SDS011;20031;43.416;23.232;2022-07-25T08:42:43;7.95;;;6.28;;
33696;SDS011;20031;43.416;23.232;2022-07-25T08:45:10;15.13;;;6.90;;
33696;SDS011;20031;43.416;23.232;2022-07-25T08:47:47;13.45;;;7.43;;
33696;SDS011;20031;43.416;23.232;2022-07-25T08:50:14;10.10;;;6.57;;
33696;SDS011;20031;43.416;23.232;2022-07-25T08:52:42;12.30;;;6.80;;
33696;SDS011;20031;43.416;23.232;2022-07-25T08:55:11;16.15;;;7.13;;
33696;SDS011;20031;43.416;23.232;2022-07-25T08:57:44;12.82;;;7.50;;
33696;SDS011;20031;43.416;23.232;2022-07-25T09:00:13;13.90;;;7.28;;
33696;SDS011;20031;43.416;23.232;2022-07-25T09:02:40;11.60;;;7.10;;
33696;SDS011;20031;43.416;23.232;2022-07-25T09:05:06;16.02;;;7.75;;
33696;SDS011;20031;43.416;23.232;2022-07-25T10:08:37;13.80;;;6.22;;
33696;SDS011;20031;43.416;23.232;2022-07-25T10:11:04;9.40;;;5.82;;
33696;SDS011;20031;43.416;23.232;2022-07-25T10:13:34;13.25;;;6.45;;
33696;SDS011;20031;43.416;23.232;2022-07-25T10:16:01;13.88;;;6.72;;
33696;SDS011;20031;43.416;23.232;2022-07-25T10:18:27;14.90;;;7.03;;
33696;SDS011;20031;43.416;23.232;2022-07-25T10:20:54;10.88;;;6.40;;
33696;SDS011;20031;43.416;23.232;2022-07-25T10:23:32;16.67;;;6.38;;
33696;SDS011;20031;43.416;23.232;2022-07-25T10:25:59;9.18;;;6.55;;
33696;SDS011;20031;43.416;23.232;2022-07-25T10:28:35;21.73;;;7.30;;
33696;SDS011;20031;43.416;23.232;2022-07-25T10:33:47;16.50;;;6.13;;
33696;SDS011;20031;43.416;23.232;2022-07-25T10:36:18;14.07;;;7.07;;
33696;SDS011;20031;43.416;23.232;2022-07-25T10:38:44;13.20;;;7.00;;
33696;SDS011;20031;43.416;23.232;2022-07-25T10:41:16;13.80;;;7.57;;
33696;SDS011;20031;43.416;23.232;2022-07-25T10:43:43;13.70;;;7.20;;
33696;SDS011;20031;43.416;23.232;2022-07-25T10:46:11;12.93;;;6.97;;
33696;SDS011;20031;43.416;23.232;2022-07-25T10:48:38;14.98;;;7.53;;
33696;SDS011;20031;43.416;23.232;2022-07-25T10:51:05;16.63;;;7.05;;
33696;SDS011;20031;43.416;23.232;2022-07-25T10:53:36;17.35;;;6.97;;
33696;SDS011;20031;43.416;23.232;2022-07-25T10:56:06;24.38;;;7.55;;
33696;SDS011;20031;43.416;23.232;2022-07-25T10:58:50;12.20;;;6.63;;
33696;SDS011;20031;43.416;23.232;2022-07-25T11:01:25;12.93;;;5.80;;
33696;SDS011;20031;43.416;23.232;2022-07-25T11:03:52;11.15;;;6.85;;
33696;SDS011;20031;43.416;23.232;2022-07-25T11:06:29;20.38;;;6.75;;
33696;SDS011;20031;43.416;23.232;2022-07-25T11:09:11;10.60;;;6.97;;
33696;SDS011;20031;43.416;23.232;2022-07-25T11:11:49;14.63;;;7.32;;
33696;SDS011;20031;43.416;23.232;2022-07-25T11:14:17;10.23;;;6.80;;
33696;SDS011;20031;43.416;23.232;2022-07-25T11:16:47;8.68;;;6.45;;
33696;SDS011;20031;43.416;23.232;2022-07-25T11:19:17;9.48;;;6.53;;
33696;SDS011;20031;43.416;23.232;2022-07-25T11:21:43;10.05;;;6.47;;
33696;SDS011;20031;43.416;23.232;2022-07-25T11:24:09;11.63;;;7.05;;
33696;SDS011;20031;43.416;23.232;2022-07-25T11:26:43;11.10;;;6.72;;
33696;SDS011;20031;43.416;23.232;2022-07-25T11:29:20;12.75;;;6.97;;
33696;SDS011;20031;43.416;23.232;2022-07-25T11:31:54;15.02;;;6.85;;
33696;SDS011;20031;43.416;23.232;2022-07-25T11:34:22;11.88;;;6.50;;
33696;SDS011;20031;43.416;23.232;2022-07-25T11:36:51;13.20;;;6.80;;
33696;SDS011;20031;43.416;23.232;2022-07-25T11:39:21;11.88;;;6.80;;
33696;SDS011;20031;43.416;23.232;2022-07-25T11:41:57;12.45;;;7.03;;
33696;SDS011;20031;43.416;23.232;2022-07-25T11:44:37;14.40;;;7.30;;
33696;SDS011;20031;43.416;23.232;2022-07-25T11:47:04;14.10;;;6.80;;
33696;SDS011;20031;43.416;23.232;2022-07-25T11:50:05;13.65;;;6.50;;
33696;SDS011;20031;43.416;23.232;2022-07-25T11:55:02;13.43;;;6.68;;
33696;SDS011;20031;43.416;23.232;2022-07-25T11:57:30;13.77;;;6.97;;
33696;SDS011;20031;43.416;23.232;2022-07-25T11:59:57;10.38;;;5.60;;
33696;SDS011;20031;43.416;23.232;2022-07-25T12:02:25;17.02;;;5.97;;
33696;SDS011;20031;43.416;23.232;2022-07-25T12:05:02;11.07;;;6.40;;
33696;SDS011;20031;43.416;23.232;2022-07-25T12:07:34;14.18;;;6.55;;
33696;SDS011;20031;43.416;23.232;2022-07-25T12:10:01;9.50;;;6.60;;
33696;SDS011;20031;43.416;23.232;2022-07-25T12:12:26;12.30;;;6.65;;
33696;SDS011;20031;43.416;23.232;2022-07-25T12:14:52;9.93;;;6.80;;
33696;SDS011;20031;43.416;23.232;2022-07-25T12:17:17;9.65;;;6.45;;
33696;SDS011;20031;43.416;23.232;2022-07-25T12:19:46;15.75;;;6.13;;
33696;SDS011;20031;43.416;23.232;2022-07-25T12:22:11;10.20;;;6.60;;
33696;SDS011;20031;43.416;23.232;2022-07-25T12:24:37;9.52;;;6.68;;
33696;SDS011;20031;43.416;23.232;2022-07-25T12:27:02;19.23;;;6.95;;
33696;SDS011;20031;43.416;23.232;2022-07-25T12:29:28;9.93;;;6.70;;
33696;SDS011;20031;43.416;23.232;2022-07-25T12:31:53;14.90;;;6.82;;
33696;SDS011;20031;43.416;23.232;2022-07-25T12:34:19;10.90;;;6.30;;
33696;SDS011;20031;43.416;23.232;2022-07-25T12:36:44;13.45;;;5.90;;
33696;SDS011;20031;43.416;23.232;2022-07-25T12:39:10;8.25;;;5.85;;
33696;SDS011;20031;43.416;23.232;2022-07-25T12:41:35;10.25;;;5.85;;
33696;SDS011;20031;43.416;23.232;2022-07-25T12:44:01;9.35;;;5.88;;
33696;SDS011;20031;43.416;23.232;2022-07-25T12:46:28;9.90;;;5.25;;
33696;SDS011;20031;43.416;23.232;2022-07-25T12:48:53;9.57;;;5.10;;
33696;SDS011;20031;43.416;23.232;2022-07-25T12:51:19;31.73;;;6.05;;
33696;SDS011;20031;43.416;23.232;2022-07-25T12:53:44;7.70;;;5.25;;
33696;SDS011;20031;43.416;23.232;2022-07-25T12:56:11;10.82;;;6.47;;
33696;SDS011;20031;43.416;23.232;2022-07-25T12:58:36;12.75;;;5.35;;
33696;SDS011;20031;43.416;23.232;2022-07-25T13:01:02;9.15;;;5.20;;
33696;SDS011;20031;43.416;23.232;2022-07-25T13:03:28;14.38;;;6.20;;
33696;SDS011;20031;43.416;23.232;2022-07-25T13:05:53;8.15;;;5.90;;
33696;SDS011;20031;43.416;23.232;2022-07-25T13:08:19;8.73;;;5.40;;
33696;SDS011;20031;43.416;23.232;2022-07-25T13:10:44;10.18;;;4.65;;
33696;SDS011;20031;43.416;23.232;2022-07-25T13:13:10;10.02;;;5.40;;
33696;SDS011;20031;43.416;23.232;2022-07-25T13:15:37;10.18;;;6.40;;
33696;SDS011;20031;43.416;23.232;2022-07-25T13:18:03;9.52;;;5.80;;
33696;SDS011;20031;43.416;23.232;2022-07-25T13:20:29;18.88;;;5.68;;
33696;SDS011;20031;43.416;23.232;2022-07-25T13:22:55;8.73;;;5.82;;
33696;SDS011;20031;43.416;23.232;2022-07-25T13:25:21;42.50;;;7.35;;
33696;SDS011;20031;43.416;23.232;2022-07-25T13:27:46;13.68;;;6.47;;
33696;SDS011;20031;43.416;23.232;2022-07-25T13:30:13;11.30;;;5.88;;
33696;SDS011;20031;43.416;23.232;2022-07-25T13:32:39;9.98;;;5.63;;
33696;SDS011;20031;43.416;23.232;2022-07-25T13:35:05;7.47;;;5.35;;
33696;SDS011;20031;43.416;23.232;2022-07-25T13:37:31;12.98;;;5.40;;
33696;SDS011;20031;43.416;23.232;2022-07-25T13:39:57;7.25;;;5.40;;
33696;SDS011;20031;43.416;23.232;2022-07-25T13:42:23;10.40;;;5.57;;
33696;SDS011;20031;43.416;23.232;2022-07-25T13:44:48;11.00;;;6.13;;
33696;SDS011;20031;43.416;23.232;2022-07-25T13:47:14;9.98;;;6.57;;
33696;SDS011;20031;43.416;23.232;2022-07-25T13:49:40;9.57;;;6.25;;
33696;SDS011;20031;43.416;23.232;2022-07-25T13:52:05;14.65;;;6.15;;
33696;SDS011;20031;43.416;23.232;2022-07-25T13:54:31;7.78;;;5.70;;
33696;SDS011;20031;43.416;23.232;2022-07-25T13:56:56;13.75;;;5.65;;
33696;SDS011;20031;43.416;23.232;2022-07-25T13:59:22;12.85;;;6.22;;
33696;SDS011;20031;43.416;23.232;2022-07-25T14:01:48;9.68;;;5.75;;
33696;SDS011;20031;43.416;23.232;2022-07-25T14:04:14;11.50;;;5.90;;
33696;SDS011;20031;43.416;23.232;2022-07-25T14:06:40;26.95;;;10.23;;
33696;SDS011;20031;43.416;23.232;2022-07-25T14:09:05;17.40;;;7.07;;
33696;SDS011;20031;43.416;23.232;2022-07-25T14:11:31;15.95;;;6.28;;
33696;SDS011;20031;43.416;23.232;2022-07-25T14:13:56;10.55;;;5.75;;
33696;SDS011;20031;43.416;23.232;2022-07-25T14:16:22;10.15;;;5.57;;
33696;SDS011;20031;43.416;23.232;2022-07-25T14:18:47;9.93;;;5.40;;
33696;SDS011;20031;43.416;23.232;2022-07-25T14:21:13;9.50;;;5.60;;
33696;SDS011;20031;43.416;23.232;2022-07-25T14:23:39;12.40;;;6.80;;
33696;SDS011;20031;43.416;23.232;2022-07-25T14:26:05;11.82;;;5.30;;
33696;SDS011;20031;43.416;23.232;2022-07-25T14:28:30;7.72;;;5.18;;
33696;SDS011;20031;43.416;23.232;2022-07-25T14:30:56;11.68;;;5.35;;
33696;SDS011;20031;43.416;23.232;2022-07-25T14:33:21;9.35;;;5.30;;
33696;SDS011;20031;43.416;23.232;2022-07-25T14:35:47;9.13;;;5.20;;
33696;SDS011;20031;43.416;23.232;2022-07-25T14:38:12;10.73;;;5.43;;
33696;SDS011;20031;43.416;23.232;2022-07-25T14:40:38;9.63;;;4.97;;
33696;SDS011;20031;43.416;23.232;2022-07-25T14:43:03;7.43;;;4.75;;
33696;SDS011;20031;43.416;23.232;2022-07-25T14:45:29;6.75;;;4.70;;
33696;SDS011;20031;43.416;23.232;2022-07-25T14:47:54;8.93;;;4.80;;
33696;SDS011;20031;43.416;23.232;2022-07-25T14:50:20;8.00;;;4.38;;
33696;SDS011;20031;43.416;23.232;2022-07-25T14:52:45;13.18;;;4.53;;
33696;SDS011;20031;43.416;23.232;2022-07-25T14:55:11;9.85;;;4.78;;
33696;SDS011;20031;43.416;23.232;2022-07-25T14:57:36;11.15;;;4.80;;
33696;SDS011;20031;43.416;23.232;2022-07-25T15:00:03;9.90;;;5.18;;
33696;SDS011;20031;43.416;23.232;2022-07-25T15:02:29;44.45;;;17.25;;
33696;SDS011;20031;43.416;23.232;2022-07-25T15:04:54;31.67;;;11.93;;
33696;SDS011;20031;43.416;23.232;2022-07-25T15:07:20;8.32;;;4.55;;
33696;SDS011;20031;43.416;23.232;2022-07-25T15:09:45;8.93;;;5.07;;
33696;SDS011;20031;43.416;23.232;2022-07-25T15:12:11;7.22;;;4.70;;
33696;SDS011;20031;43.416;23.232;2022-07-25T15:14:38;6.95;;;4.15;;
33696;SDS011;20031;43.416;23.232;2022-07-25T15:17:04;29.02;;;11.27;;
33696;SDS011;20031;43.416;23.232;2022-07-25T15:19:29;12.05;;;5.38;;
33696;SDS011;20031;43.416;23.232;2022-07-25T15:21:55;6.68;;;4.18;;
33696;SDS011;20031;43.416;23.232;2022-07-25T15:24:20;8.43;;;4.15;;
33696;SDS011;20031;43.416;23.232;2022-07-25T15:26:46;17.85;;;7.03;;
33696;SDS011;20031;43.416;23.232;2022-07-25T15:29:12;8.65;;;4.55;;
33696;SDS011;20031;43.416;23.232;2022-07-25T15:31:42;15.20;;;4.28;;
33696;SDS011;20031;43.416;23.232;2022-07-25T15:34:08;6.18;;;4.00;;
33696;SDS011;20031;43.416;23.232;2022-07-25T15:36:33;9.35;;;4.30;;
33696;SDS011;20031;43.416;23.232;2022-07-25T15:38:58;7.93;;;4.30;;
33696;SDS011;20031;43.416;23.232;2022-07-25T15:41:24;9.38;;;4.05;;
33696;SDS011;20031;43.416;23.232;2022-07-25T15:43:50;7.88;;;4.22;;
33696;SDS011;20031;43.416;23.232;2022-07-25T15:46:16;8.77;;;4.20;;
33696;SDS011;20031;43.416;23.232;2022-07-25T15:48:42;6.63;;;4.05;;
33696;SDS011;20031;43.416;23.232;2022-07-25T15:51:08;14.38;;;6.40;;
33696;SDS011;20031;43.416;23.232;2022-07-25T15:53:33;14.68;;;6.40;;
33696;SDS011;20031;43.416;23.232;2022-07-25T15:55:59;99.43;;;7.85;;
33696;SDS011;20031;43.416;23.232;2022-07-25T15:58:24;6.50;;;4.00;;
33696;SDS011;20031;43.416;23.232;2022-07-25T16:00:50;7.30;;;3.90;;
33696;SDS011;20031;43.416;23.232;2022-07-25T16:03:16;7.00;;;4.10;;
33696;SDS011;20031;43.416;23.232;2022-07-25T16:05:42;9.00;;;4.28;;
33696;SDS011;20031;43.416;23.232;2022-07-25T16:08:08;8.95;;;3.80;;
33696;SDS011;20031;43.416;23.232;2022-07-25T16:10:35;11.00;;;4.70;;
33696;SDS011;20031;43.416;23.232;2022-07-25T16:13:01;12.43;;;4.72;;
33696;SDS011;20031;43.416;23.232;2022-07-25T16:15:26;7.47;;;5.03;;
33696;SDS011;20031;43.416;23.232;2022-07-25T16:17:52;13.85;;;5.20;;
33696;SDS011;20031;43.416;23.232;2022-07-25T16:20:20;13.10;;;5.28;;
33696;SDS011;20031;43.416;23.232;2022-07-25T16:22:47;8.13;;;3.70;;